createdAt,value
2023-04-24T00:00:46.261Z,98494.16
2023-04-24T00:03:16.718Z,98488.97
2023-04-24T00:05:46.981Z,98490.72
2023-04-24T00:08:15.670Z,98490.72
2023-04-24T00:10:44.706Z,98493.31
2023-04-24T00:13:13.767Z,98493.25
2023-04-24T00:15:42.341Z,98488.06
2023-04-24T00:18:10.775Z,98490.66
2023-04-24T00:20:39.143Z,98497.56
2023-04-24T00:23:09.281Z,98491.50
2023-04-24T00:25:37.611Z,98480.19
2023-04-24T00:28:06.224Z,98485.34
2023-04-24T00:30:34.721Z,98487.94
2023-04-24T00:33:03.120Z,98478.34
2023-04-24T00:35:31.801Z,98486.13
2023-04-24T00:38:00.593Z,98484.41
2023-04-24T00:40:31.416Z,98473.94
2023-04-24T00:42:59.883Z,98477.41
2023-04-24T00:45:28.685Z,98485.19
2023-04-24T00:47:57.677Z,98475.63
2023-04-24T00:50:27.505Z,98481.69
2023-04-24T00:52:56.347Z,98484.25
2023-04-24T00:55:24.893Z,98474.69
2023-04-24T00:57:55.325Z,98483.38
2023-04-24T01:00:24.727Z,98478.19
2023-04-24T01:02:55.074Z,98482.47
2023-04-24T01:05:24.022Z,98480.72
2023-04-24T01:07:52.486Z,98472.03
2023-04-24T01:10:21.727Z,98478.94
2023-04-24T01:12:50.738Z,98487.59
2023-04-24T01:15:20.536Z,98486.72
2023-04-24T01:17:49.097Z,98492.72
2023-04-24T01:20:18.141Z,98484.06
2023-04-24T01:22:48.309Z,98488.31
2023-04-24T01:25:17.499Z,98482.22
2023-04-24T01:27:46.661Z,98483.94
2023-04-24T01:30:16.682Z,98484.75
2023-04-24T01:32:47.253Z,98488.19
2023-04-24T01:35:15.825Z,98492.50
2023-04-24T01:37:44.203Z,98482.94
2023-04-24T01:40:14.304Z,98489.00
2023-04-24T01:42:44.138Z,98482.03
2023-04-24T01:45:14.823Z,98487.22
2023-04-24T01:47:44.192Z,98492.41
2023-04-24T01:50:12.872Z,98491.53
2023-04-24T01:52:41.343Z,98487.16
2023-04-24T01:55:14.153Z,98479.34
2023-04-24T01:57:42.697Z,98479.31
2023-04-24T02:00:13.377Z,98479.28
2023-04-24T02:02:45.665Z,98487.09
2023-04-24T02:05:16.079Z,98481.06
2023-04-24T02:07:44.511Z,98475.84
2023-04-24T02:10:14.369Z,98477.59
2023-04-24T02:12:45.884Z,98488.00
2023-04-24T02:15:14.484Z,98493.19
2023-04-24T02:17:43.182Z,98489.69
2023-04-24T02:20:12.535Z,98501.81
2023-04-24T02:22:41.017Z,98499.16
2023-04-24T02:25:10.628Z,98489.63
2023-04-24T02:27:40.985Z,98501.78
2023-04-24T02:30:11.125Z,98502.63
2023-04-24T02:32:40.107Z,98499.16
2023-04-24T02:35:09.818Z,98503.47
2023-04-24T02:37:38.174Z,98509.56
2023-04-24T02:40:08.673Z,98511.28
2023-04-24T02:42:37.081Z,98522.56
2023-04-24T02:45:08.687Z,98513.03
2023-04-24T02:47:37.269Z,98521.63
2023-04-24T02:50:07.324Z,98515.53
2023-04-24T02:52:36.023Z,98520.66
2023-04-24T02:55:05.361Z,98511.94
2023-04-24T02:57:33.781Z,98523.16
2023-04-24T03:00:02.439Z,98504.91
2023-04-24T03:02:32.344Z,98517.03
2023-04-24T03:05:00.872Z,98510.09
2023-04-24T03:07:29.255Z,98522.19
2023-04-24T03:09:59.102Z,98517.81
2023-04-24T03:12:28.959Z,98536.00
2023-04-24T03:14:57.236Z,98526.47
2023-04-24T03:17:25.909Z,98534.25
2023-04-24T03:19:56.429Z,98530.75
2023-04-24T03:22:25.060Z,98531.59
2023-04-24T03:24:55.816Z,98535.91
2023-04-24T03:27:24.746Z,98535.88
2023-04-24T03:29:59.182Z,98539.31
2023-04-24T03:32:35.961Z,98523.69
2023-04-24T03:35:08.412Z,98536.66
2023-04-24T03:37:37.242Z,98543.59
2023-04-24T03:40:25.573Z,98542.59
2023-04-24T03:42:54.142Z,98540.84
2023-04-24T03:45:22.954Z,98544.34
2023-04-24T03:47:53.533Z,98544.31
2023-04-24T03:50:23.726Z,98541.75
2023-04-24T03:52:52.489Z,98547.78
2023-04-24T03:55:32.333Z,98543.47
2023-04-24T03:58:00.929Z,98547.78
2023-04-24T04:00:29.663Z,98540.00
2023-04-24T04:03:18.100Z,98553.81
2023-04-24T04:05:47.984Z,98549.53
2023-04-24T04:08:16.657Z,98553.84
2023-04-24T04:10:45.636Z,98546.91
2023-04-24T04:13:14.625Z,98559.88
2023-04-24T04:15:43.587Z,98555.53
2023-04-24T04:18:12.666Z,98556.41
2023-04-24T04:20:41.585Z,98554.66
2023-04-24T04:23:12.587Z,98551.19
2023-04-24T04:25:52.847Z,98556.38
2023-04-24T04:28:25.618Z,98553.78
2023-04-24T04:30:54.813Z,98558.16
2023-04-24T04:33:23.834Z,98554.72
2023-04-24T04:35:53.025Z,98558.16
2023-04-24T04:38:23.690Z,98554.69
2023-04-24T04:41:19.232Z,98561.56
2023-04-24T04:43:48.640Z,98563.28
2023-04-24T04:46:18.204Z,98572.78
2023-04-24T04:48:59.896Z,98562.34
2023-04-24T04:51:28.229Z,98571.00
2023-04-24T04:53:58.347Z,98562.34
2023-04-24T04:56:26.880Z,98558.84
2023-04-24T04:58:55.407Z,98564.88
2023-04-24T05:01:25.250Z,98567.47
2023-04-24T05:03:54.100Z,98563.13
2023-04-24T05:06:24.471Z,98566.53
2023-04-24T05:08:58.106Z,98568.22
2023-04-24T05:11:36.027Z,98573.41
2023-04-24T05:14:05.536Z,98563.00
2023-04-24T05:16:38.039Z,98556.06
2023-04-24T05:19:08.157Z,98554.31
2023-04-24T05:21:41.250Z,98553.44
2023-04-24T05:24:10.820Z,98554.28
2023-04-24T05:27:08.127Z,98558.63
2023-04-24T05:29:41.260Z,98561.25
2023-04-24T05:32:10.814Z,98566.44
2023-04-24T05:34:39.964Z,98569.00
2023-04-24T05:37:11.152Z,98558.59
2023-04-24T05:39:42.563Z,98568.91
2023-04-24T05:42:12.541Z,98568.91
2023-04-24T05:44:40.864Z,98589.59
2023-04-24T05:47:09.369Z,98581.78
2023-04-24T05:49:37.886Z,98587.81
2023-04-24T05:52:09.652Z,98588.66
2023-04-24T05:54:39.603Z,98587.81
2023-04-24T05:57:09.064Z,98579.22
2023-04-24T05:59:53.420Z,98600.84
2023-04-24T06:02:23.809Z,98588.66
2023-04-24T06:04:53.208Z,98587.78
2023-04-24T06:07:22.247Z,98578.25
2023-04-24T06:09:50.838Z,98572.22
2023-04-24T06:12:19.593Z,98584.34
2023-04-24T06:14:57.771Z,98585.22
2023-04-24T06:17:34.184Z,98579.13
2023-04-24T06:20:04.850Z,98586.03
2023-04-24T06:22:33.414Z,98590.31
2023-04-24T06:25:02.552Z,98591.13
2023-04-24T06:27:31.111Z,98590.28
2023-04-24T06:30:00.930Z,98595.47
2023-04-24T06:32:29.809Z,98592.84
2023-04-24T06:34:59.511Z,98591.91
2023-04-24T06:37:28.420Z,98590.19
2023-04-24T06:39:56.807Z,98588.44
2023-04-24T06:42:25.749Z,98604.88
2023-04-24T06:44:54.177Z,98595.31
2023-04-24T06:47:24.149Z,98591.84
2023-04-24T06:49:53.604Z,98599.59
2023-04-24T06:52:22.233Z,98595.25
2023-04-24T06:54:50.703Z,98583.13
2023-04-24T06:57:19.685Z,98590.94
2023-04-24T06:59:48.073Z,98584.03
2023-04-24T07:02:16.621Z,98587.47
2023-04-24T07:04:46.697Z,98575.41
2023-04-24T07:07:16.755Z,98584.13
2023-04-24T07:09:46.540Z,98589.31
2023-04-24T07:12:15.326Z,98594.50
2023-04-24T07:14:43.953Z,98586.72
2023-04-24T07:17:14.160Z,98584.13
2023-04-24T07:19:43.149Z,98582.41
2023-04-24T07:22:17.718Z,98583.25
2023-04-24T07:24:46.200Z,98592.69
2023-04-24T07:27:16.041Z,98593.50
2023-04-24T07:29:46.254Z,98594.31
2023-04-24T07:32:15.085Z,98594.31
2023-04-24T07:34:43.429Z,98596.03
2023-04-24T07:37:13.226Z,98598.63
2023-04-24T07:39:41.778Z,98589.09
2023-04-24T07:42:10.401Z,98602.91
2023-04-24T07:44:38.842Z,98605.47
2023-04-24T07:47:07.308Z,98599.34
2023-04-24T07:49:36.214Z,98595.84
2023-04-24T07:52:04.893Z,98612.19
2023-04-24T07:54:35.467Z,98622.53
2023-04-24T07:57:04.295Z,98610.34
2023-04-24T07:59:32.659Z,98619.81
2023-04-24T08:02:02.296Z,98611.16
2023-04-24T08:04:31.001Z,98615.44
2023-04-24T08:06:59.763Z,98615.47
2023-04-24T08:09:28.227Z,98622.31
2023-04-24T08:11:58.836Z,98624.03
2023-04-24T08:14:27.460Z,98626.56
2023-04-24T08:16:57.475Z,98630.88
2023-04-24T08:19:26.584Z,98624.78
2023-04-24T08:21:54.918Z,98635.94
2023-04-24T08:24:24.856Z,98642.91
2023-04-24T08:26:55.118Z,98642.91
2023-04-24T08:29:25.044Z,98641.22
2023-04-24T08:31:55.581Z,98646.44
2023-04-24T08:34:24.237Z,98645.56
2023-04-24T08:36:53.292Z,98649.88
2023-04-24T08:39:22.460Z,98655.91
2023-04-24T08:41:51.178Z,98661.88
2023-04-24T08:44:21.814Z,98661.00
2023-04-24T08:46:52.425Z,98655.75
2023-04-24T08:49:22.254Z,98665.19
2023-04-24T08:51:51.556Z,98663.44
2023-04-24T08:54:21.050Z,98665.94
2023-04-24T08:56:51.302Z,98665.03
2023-04-24T08:59:20.136Z,98680.53
2023-04-24T09:01:52.376Z,98670.16
2023-04-24T09:04:23.294Z,98677.91
2023-04-24T09:06:52.063Z,98682.13
2023-04-24T09:09:20.738Z,98682.13
2023-04-24T09:11:51.394Z,98686.38
2023-04-24T09:14:20.071Z,98692.44
2023-04-24T09:16:49.248Z,98701.97
2023-04-24T09:19:19.409Z,98706.25
2023-04-24T09:21:48.851Z,98705.38
2023-04-24T09:24:19.793Z,98713.16
2023-04-24T09:26:48.448Z,98713.13
2023-04-24T09:29:19.107Z,98725.22
2023-04-24T09:31:48.456Z,98729.53
2023-04-24T09:34:23.463Z,98732.13
2023-04-24T09:36:52.376Z,98735.56
2023-04-24T09:39:22.533Z,98752.78
2023-04-24T09:41:53.501Z,98755.31
2023-04-24T09:44:24.088Z,98763.16
2023-04-24T09:46:54.531Z,98769.22
2023-04-24T09:49:26.829Z,98774.47
2023-04-24T09:52:05.064Z,98775.34
2023-04-24T09:54:34.241Z,98784.94
2023-04-24T09:57:03.028Z,98791.00
2023-04-24T09:59:33.212Z,98788.50
2023-04-24T10:02:03.070Z,98818.66
2023-04-24T10:04:32.959Z,98817.53
2023-04-24T10:07:02.238Z,98846.63
2023-04-24T10:09:30.632Z,98849.00
2023-04-24T10:11:59.085Z,98855.75
2023-04-24T10:14:27.983Z,98849.59
2023-04-24T10:16:58.923Z,98862.44
2023-04-24T10:19:28.653Z,98887.25
2023-04-24T10:21:59.513Z,98895.69
2023-04-24T10:24:28.350Z,98890.19
2023-04-24T10:26:57.999Z,98897.69
2023-04-24T10:29:27.851Z,98917.22
2023-04-24T10:31:56.519Z,98928.28
2023-04-24T10:34:26.011Z,98930.75
2023-04-24T10:36:57.876Z,98934.16
2023-04-24T10:39:28.406Z,98938.63
2023-04-24T10:41:58.871Z,98937.81
2023-04-24T10:44:27.814Z,98941.47
2023-04-24T10:46:57.784Z,98937.16
2023-04-24T10:49:32.069Z,98946.69
2023-04-24T10:52:06.475Z,98946.69
2023-04-24T10:54:44.085Z,98962.34
2023-04-24T10:57:33.477Z,98980.53
2023-04-24T11:00:22.203Z,98971.00
2023-04-24T11:02:53.872Z,98979.53
2023-04-24T11:05:24.265Z,98975.16
2023-04-24T11:08:17.048Z,98980.41
2023-04-24T11:11:01.665Z,98987.31
2023-04-24T11:14:09.844Z,98989.00
2023-04-24T11:16:46.809Z,98995.06
2023-04-24T11:19:25.829Z,99004.59
2023-04-24T11:22:18.309Z,99003.06
2023-04-24T11:24:53.021Z,99016.19
2023-04-24T11:27:26.747Z,99019.75
2023-04-24T11:30:02.921Z,99019.84
2023-04-24T11:32:36.216Z,99022.44
2023-04-24T11:35:08.604Z,99031.09
2023-04-24T11:37:41.315Z,99036.28
2023-04-24T11:40:13.238Z,99030.28
2023-04-24T11:42:43.846Z,99037.22
2023-04-24T11:45:14.597Z,99027.69
2023-04-24T11:47:44.540Z,99033.84
2023-04-24T11:50:14.963Z,99034.69
2023-04-24T11:52:46.368Z,99033.16
2023-04-24T11:55:28.260Z,99034.22
2023-04-24T11:57:59.008Z,99042.03
2023-04-24T12:00:30.082Z,99050.81
2023-04-24T12:03:08.848Z,99058.69
2023-04-24T12:05:38.225Z,99054.41
2023-04-24T12:08:09.375Z,99063.06
2023-04-24T12:10:38.531Z,99067.34
2023-04-24T12:13:07.073Z,99066.34
2023-04-24T12:15:35.546Z,99063.75
2023-04-24T12:18:05.846Z,99074.00
2023-04-24T12:20:35.712Z,99089.34
2023-04-24T12:23:04.336Z,99083.19
2023-04-24T12:25:35.538Z,99083.97
2023-04-24T12:28:13.133Z,99086.66
2023-04-24T12:30:45.636Z,99083.28
2023-04-24T12:33:14.486Z,99092.09
2023-04-24T12:35:43.841Z,99092.19
2023-04-24T12:38:15.073Z,99100.16
2023-04-24T12:40:46.519Z,99109.88
2023-04-24T12:43:19.973Z,99093.56
2023-04-24T12:45:50.135Z,99103.16
2023-04-24T12:48:18.611Z,99098.91
2023-04-24T12:50:47.677Z,99105.00
2023-04-24T12:53:17.076Z,99100.78
2023-04-24T12:55:48.117Z,99106.84
2023-04-24T12:58:16.542Z,99116.34
2023-04-24T13:00:46.758Z,99129.31
2023-04-24T13:03:16.801Z,99136.28
2023-04-24T13:05:45.775Z,99134.44
2023-04-24T13:08:14.865Z,99134.25
2023-04-24T13:10:43.392Z,99134.19
2023-04-24T13:13:13.344Z,99135.06
2023-04-24T13:15:41.831Z,99145.44
2023-04-24T13:18:10.224Z,99130.72
2023-04-24T13:20:38.716Z,99137.78
2023-04-24T13:23:07.071Z,99140.41
2023-04-24T13:25:40.112Z,99141.47
2023-04-24T13:28:08.929Z,99147.69
2023-04-24T13:30:38.967Z,99142.63
2023-04-24T13:33:07.658Z,99142.75
2023-04-24T13:35:36.053Z,99140.22
2023-04-24T13:38:07.001Z,99145.50
2023-04-24T13:40:35.792Z,99152.44
2023-04-24T13:43:04.808Z,99147.28
2023-04-24T13:45:33.588Z,99151.53
2023-04-24T13:48:04.128Z,99154.13
2023-04-24T13:50:32.954Z,99152.34
2023-04-24T13:53:02.980Z,99154.00
2023-04-24T13:55:32.258Z,99159.06
2023-04-24T13:58:02.333Z,99159.72
2023-04-24T14:00:31.041Z,99144.16
2023-04-24T14:02:59.670Z,99158.78
2023-04-24T14:05:29.725Z,99163.13
2023-04-24T14:07:58.128Z,99157.06
2023-04-24T14:10:28.060Z,99150.16
2023-04-24T14:12:56.575Z,99165.78
2023-04-24T14:15:24.878Z,99151.94
2023-04-24T14:17:53.355Z,99155.44
2023-04-24T14:20:21.994Z,99152.94
2023-04-24T14:22:51.804Z,99164.25
2023-04-24T14:25:20.258Z,99154.81
2023-04-24T14:27:49.267Z,99159.19
2023-04-24T14:30:17.935Z,99154.06
2023-04-24T14:32:46.810Z,99162.72
2023-04-24T14:35:16.024Z,99180.13
2023-04-24T14:37:44.558Z,99175.03
2023-04-24T14:40:33.751Z,99163.94
2023-04-24T14:43:03.755Z,99155.34
2023-04-24T14:45:32.330Z,99166.75
2023-04-24T14:48:00.966Z,99156.41
2023-04-24T14:50:30.211Z,99164.25
2023-04-24T14:52:59.797Z,99185.03
2023-04-24T14:55:30.136Z,99170.31
2023-04-24T14:57:58.520Z,99180.63
2023-04-24T15:00:26.919Z,99173.69
2023-04-24T15:02:56.360Z,99174.50
2023-04-24T15:05:26.342Z,99172.72
2023-04-24T15:07:55.250Z,99181.34
2023-04-24T15:10:25.225Z,99185.66
2023-04-24T15:12:55.312Z,99196.84
2023-04-24T15:15:23.830Z,99195.94
2023-04-24T15:17:52.208Z,99209.69
2023-04-24T15:20:20.865Z,99206.97
2023-04-24T15:22:49.432Z,99215.53
2023-04-24T15:25:17.931Z,99223.13
2023-04-24T15:27:47.928Z,99218.63
2023-04-24T15:30:17.837Z,99231.34
2023-04-24T15:32:46.607Z,99239.88
2023-04-24T15:35:15.618Z,99229.53
2023-04-24T15:37:44.488Z,99226.97
2023-04-24T15:40:16.503Z,99213.16
2023-04-24T15:42:45.715Z,99221.00
2023-04-24T15:45:14.475Z,99211.56
2023-04-24T15:47:47.080Z,99211.75
2023-04-24T15:50:17.302Z,99223.00
2023-04-24T15:52:45.879Z,99224.78
2023-04-24T15:55:14.336Z,99221.44
2023-04-24T15:57:44.057Z,99219.78
2023-04-24T16:00:13.908Z,99226.59
2023-04-24T16:02:44.080Z,99220.56
2023-04-24T16:05:12.685Z,99223.19
2023-04-24T16:07:41.192Z,99226.72
2023-04-24T16:10:11.955Z,99218.13
2023-04-24T16:12:40.835Z,99229.38
2023-04-24T16:15:10.123Z,99219.94
2023-04-24T16:17:38.710Z,99221.72
2023-04-24T16:20:10.384Z,99233.84
2023-04-24T16:22:39.791Z,99223.41
2023-04-24T16:25:10.621Z,99225.06
2023-04-24T16:27:39.309Z,99225.00
2023-04-24T16:30:09.694Z,99233.75
2023-04-24T16:32:38.536Z,99240.63
2023-04-24T16:35:10.269Z,99231.16
2023-04-24T16:37:39.120Z,99230.25
2023-04-24T16:40:10.966Z,99238.09
2023-04-24T16:42:40.612Z,99232.97
2023-04-24T16:45:11.460Z,99231.25
2023-04-24T16:47:39.953Z,99236.50
2023-04-24T16:50:12.619Z,99247.81
2023-04-24T16:52:41.019Z,99245.28
2023-04-24T16:55:10.604Z,99243.59
2023-04-24T16:57:39.323Z,99245.34
2023-04-24T17:00:09.968Z,99247.19
2023-04-24T17:02:38.701Z,99254.91
2023-04-24T17:05:09.892Z,99249.59
2023-04-24T17:07:38.352Z,99250.31
2023-04-24T17:10:09.062Z,99248.56
2023-04-24T17:12:37.473Z,99243.34
2023-04-24T17:15:08.042Z,99252.00
2023-04-24T17:17:36.603Z,99258.03
2023-04-24T17:20:18.597Z,99256.19
2023-04-24T17:22:52.646Z,99265.56
2023-04-24T17:25:21.534Z,99255.88
2023-04-24T17:27:50.082Z,99265.19
2023-04-24T17:30:18.723Z,99270.19
2023-04-24T17:32:47.240Z,99276.94
2023-04-24T17:35:15.914Z,99281.19
2023-04-24T17:37:45.000Z,99279.34
2023-04-24T17:40:15.275Z,99278.34
2023-04-24T17:42:43.761Z,99280.03
2023-04-24T17:45:13.421Z,99279.13
2023-04-24T17:47:42.399Z,99283.38
2023-04-24T17:50:11.438Z,99275.59
2023-04-24T17:52:40.394Z,99277.31
2023-04-24T17:55:09.970Z,99277.31
2023-04-24T17:57:40.153Z,99284.22
2023-04-24T18:00:10.537Z,99281.63
2023-04-24T18:02:39.239Z,99275.59
2023-04-24T18:05:08.037Z,99276.53
2023-04-24T18:07:36.429Z,99281.69
2023-04-24T18:10:06.422Z,99278.25
2023-04-24T18:12:35.154Z,99288.63
2023-04-24T18:15:13.856Z,99287.81
2023-04-24T18:17:43.099Z,99293.81
2023-04-24T18:20:12.438Z,99297.22
2023-04-24T18:22:41.503Z,99299.88
2023-04-24T18:25:11.624Z,99303.38
2023-04-24T18:27:41.067Z,99301.72
2023-04-24T18:30:14.399Z,99298.31
2023-04-24T18:32:43.551Z,99310.44
2023-04-24T18:35:12.309Z,99317.34
2023-04-24T18:37:41.133Z,99307.84
2023-04-24T18:40:11.568Z,99314.69
2023-04-24T18:42:40.469Z,99315.50
2023-04-24T18:45:14.987Z,99317.16
2023-04-24T18:47:44.272Z,99323.13
2023-04-24T18:50:14.626Z,99321.44
2023-04-24T18:52:43.140Z,99325.78
2023-04-24T18:55:11.896Z,99319.72
2023-04-24T18:57:40.834Z,99330.91
2023-04-24T19:00:12.988Z,99323.88
2023-04-24T19:02:41.533Z,99329.94
2023-04-24T19:05:12.023Z,99333.44
2023-04-24T19:07:42.150Z,99340.47
2023-04-24T19:10:11.639Z,99336.16
2023-04-24T19:12:40.349Z,99338.81
2023-04-24T19:15:13.003Z,99342.31
2023-04-24T19:17:41.646Z,99345.72
2023-04-24T19:20:10.914Z,99346.59
2023-04-24T19:22:39.800Z,99347.50
2023-04-24T19:25:09.782Z,99351.84
2023-04-24T19:27:38.194Z,99347.50
2023-04-24T19:30:08.571Z,99354.50
2023-04-24T19:32:38.437Z,99355.31
2023-04-24T19:35:07.607Z,99358.81
2023-04-24T19:37:36.641Z,99360.50
2023-04-24T19:40:06.664Z,99360.56
2023-04-24T19:42:43.214Z,99350.13
2023-04-24T19:45:13.974Z,99355.31
2023-04-24T19:47:44.282Z,99349.25
2023-04-24T19:50:14.967Z,99353.63
2023-04-24T19:52:43.518Z,99347.44
2023-04-24T19:55:12.267Z,99350.00
2023-04-24T19:57:40.738Z,99348.25
2023-04-24T20:00:11.087Z,99360.31
2023-04-24T20:02:39.730Z,99347.28
2023-04-24T20:05:11.800Z,99348.16
2023-04-24T20:07:40.498Z,99343.81
2023-04-24T20:10:11.962Z,99344.63
2023-04-24T20:12:41.153Z,99339.44
2023-04-24T20:15:11.379Z,99352.31
2023-04-24T20:17:40.087Z,99349.63
2023-04-24T20:20:12.288Z,99350.47
2023-04-24T20:22:41.045Z,99347.78
2023-04-24T20:25:11.553Z,99356.38
2023-04-24T20:27:40.914Z,99350.31
2023-04-24T20:30:13.219Z,99351.13
2023-04-24T20:32:42.684Z,99356.31
2023-04-24T20:35:13.443Z,99352.84
2023-04-24T20:37:42.400Z,99354.63
2023-04-24T20:40:14.495Z,99352.84
2023-04-24T20:42:43.971Z,99364.03
2023-04-24T20:45:12.899Z,99363.91
2023-04-24T20:47:41.340Z,99363.81
2023-04-24T20:50:12.931Z,99368.94
2023-04-24T20:52:42.431Z,99375.78
2023-04-24T20:55:11.518Z,99364.50
2023-04-24T20:57:40.224Z,99371.38
2023-04-24T21:00:10.852Z,99372.19
2023-04-24T21:02:39.712Z,99374.78
2023-04-24T21:05:10.204Z,99379.88
2023-04-24T21:07:40.348Z,99355.53
2023-04-24T21:10:10.579Z,99376.25
2023-04-24T21:12:38.961Z,99369.31
2023-04-24T21:15:09.524Z,99369.31
2023-04-24T21:17:37.910Z,99375.38
2023-04-24T21:20:07.683Z,99376.25
2023-04-24T21:22:36.054Z,99376.25
2023-04-24T21:25:06.969Z,99374.59
2023-04-24T21:27:35.432Z,99376.19
2023-04-24T21:30:04.802Z,99370.13
2023-04-24T21:32:33.578Z,99371.84
2023-04-24T21:35:02.291Z,99370.13
2023-04-24T21:37:32.784Z,99371.84
2023-04-24T21:40:01.096Z,99375.25
2023-04-24T21:42:31.158Z,99370.06
2023-04-24T21:44:59.634Z,99376.13
2023-04-24T21:47:28.118Z,99370.97
2023-04-24T21:49:56.528Z,99368.38
2023-04-24T21:52:25.551Z,99356.25
2023-04-24T21:54:53.987Z,99366.59
2023-04-24T21:57:22.411Z,99367.41
2023-04-24T21:59:52.906Z,99366.50
2023-04-24T22:02:22.189Z,99363.91
2023-04-24T22:04:51.897Z,99367.34
2023-04-24T22:07:20.485Z,99364.81
2023-04-24T22:09:48.976Z,99362.91
2023-04-24T22:12:18.513Z,99360.31
2023-04-24T22:14:47.209Z,99356.88
2023-04-24T22:17:17.725Z,99364.59
2023-04-24T22:19:46.466Z,99371.34
2023-04-24T22:22:15.223Z,99362.75
2023-04-24T22:24:44.114Z,99355.66
2023-04-24T22:27:12.754Z,99370.22
2023-04-24T22:29:41.428Z,99374.53
2023-04-24T22:32:10.103Z,99376.97
2023-04-24T22:34:40.018Z,99370.81
2023-04-24T22:37:09.112Z,99361.22
2023-04-24T22:39:37.444Z,99374.97
2023-04-24T22:42:06.162Z,99368.03
2023-04-24T22:44:34.743Z,99360.19
2023-04-24T22:47:06.997Z,99364.31
2023-04-24T22:49:35.983Z,99365.94
2023-04-24T22:52:06.400Z,99375.34
2023-04-24T22:54:35.988Z,99362.38
2023-04-24T22:57:04.569Z,99368.31
2023-04-24T22:59:33.079Z,99369.13
2023-04-24T23:02:01.732Z,99374.25
2023-04-24T23:04:30.299Z,99363.06
2023-04-24T23:06:58.656Z,99362.19
2023-04-24T23:09:29.347Z,99365.63
2023-04-24T23:11:58.564Z,99368.22
2023-04-24T23:14:26.918Z,99369.94
2023-04-24T23:16:55.347Z,99361.28
2023-04-24T23:19:24.151Z,99362.97
2023-04-24T23:21:52.917Z,99370.69
2023-04-24T23:24:21.287Z,99373.19
2023-04-24T23:26:51.611Z,99365.41
2023-04-24T23:29:23.118Z,99363.69
2023-04-24T23:31:51.541Z,99362.69
2023-04-24T23:34:20.312Z,99363.56
2023-04-24T23:36:50.713Z,99361.81
2023-04-24T23:39:19.347Z,99357.44
2023-04-24T23:41:49.414Z,99357.41
2023-04-24T23:44:19.438Z,99366.00
2023-04-24T23:46:47.765Z,99365.94
2023-04-24T23:49:16.109Z,99360.69
2023-04-24T23:51:45.024Z,99355.50
2023-04-24T23:54:14.443Z,99348.47
2023-04-24T23:56:43.033Z,99351.06
2023-04-24T23:59:11.862Z,99356.25
